This is the latest recevied weather packets stored in our database for station/object VK3BKO-13. If no packets are shown the sender has not sent any weather packets the latest 10 day(s).
| Time | Temp. | Humidity | Pressure | Rain* | Wind** | Luminosity | Snow |
|---|---|---|---|---|---|---|---|
| 1777935723 | 14.44° C | 77% | 1018.7 hPa | 0 mm | - | 86 W/m² | - |
| 1777934824 | 13.89° C | 78% | 1018.7 hPa | 0 mm | - | 94 W/m² | - |
| 1777933982 | 14.44° C | 78% | 1018.3 hPa | 0 mm | - | 57 W/m² | - |
| 1777933024 | 13.33° C | 80% | 1018 hPa | 0 mm | - | 104 W/m² | - |
| 1777932123 | 13.89° C | 80% | 1017.6 hPa | 0 mm | - | 29 W/m² | - |
| 1777931224 | 13.89° C | 81% | 1017.6 hPa | 0 mm | - | 31 W/m² | - |
| 1777930323 | 13.33° C | 81% | 1017.3 hPa | 0 mm | - | 17 W/m² | - |
| 1777929424 | 13.33° C | 82% | 1017 hPa | 0 mm | - | 6 W/m² | - |
| 1777928523 | 13.33° C | 82% | 1017 hPa | 0 mm | - | 2 W/m² | - |
| 1777927623 | 13.33° C | 82% | 1016.6 hPa | 0 mm | - | 0 W/m² | - |
| 1777926724 | 13.33° C | 83% | 1016.6 hPa | 0 mm | - | 0 W/m² | - |
| 1777925824 | 13.33° C | 82% | 1015.9 hPa | 0 mm | - | 0 W/m² | - |
| 1777924924 | 13.89° C | 81% | 1015.9 hPa | 0 mm | - | 0 W/m² | - |
| 1777924023 | 13.33° C | 81% | 1015.6 hPa | 0 mm | - | 0 W/m² | - |
| 1777923124 | 13.89° C | 80% | 1015.6 hPa | 0 mm | - | 0 W/m² | - |
| 1777922224 | 13.89° C | 79% | 1015.6 hPa | 0 mm | - | 0 W/m² | - |
| 1777921324 | 13.89° C | 79% | 1015.3 hPa | 0 mm | - | 0 W/m² | - |
| 1777920423 | 13.89° C | 79% | 1015.3 hPa | 0 mm | - | 0 W/m² | - |
| 1777919524 | 13.89° C | 78% | 1014.9 hPa | 0 mm | - | 0 W/m² | - |
| 1777918624 | 13.89° C | 78% | 1014.9 hPa | 0 mm | - | 0 W/m² | - |
| 1777917724 | 13.89° C | 78% | 1014.6 hPa | 0 mm | - | 0 W/m² | - |
| 1777916824 | 13.89° C | 78% | 1014.3 hPa | 0 mm | - | 0 W/m² | - |
| 1777915924 | 13.89° C | 77% | 1014.3 hPa | 0 mm | - | 0 W/m² | - |
| 1777915023 | 13.89° C | 76% | 1014.3 hPa | 0 mm | - | 0 W/m² | - |
| 1777914123 | 13.89° C | 75% | 1013.9 hPa | 0 mm | - | 0 W/m² | - |
* Rain latest hour (hover to see other rain measurements)
** Current wind speed in m/s (hover to see current wind gust speed)